createdAt,value
2023-01-25T00:01:10.619Z,22.87
2023-01-25T00:03:12.349Z,22.90
2023-01-25T00:05:14.048Z,22.80
2023-01-25T00:07:15.730Z,24.67
2023-01-25T00:09:18.289Z,24.70
2023-01-25T00:11:20.709Z,24.87
2023-01-25T00:13:22.668Z,22.80
2023-01-25T00:15:24.548Z,21.80
2023-01-25T00:17:26.911Z,23.17
2023-01-25T00:19:28.574Z,22.60
2023-01-25T00:21:30.459Z,22.90
2023-01-25T00:23:35.064Z,24.87
2023-01-25T00:25:36.734Z,24.47
2023-01-25T00:27:38.438Z,23.07
2023-01-25T00:30:36.462Z,23.50
2023-01-25T00:33:34.662Z,23.13
2023-01-25T00:35:36.345Z,23.20
2023-01-25T00:37:42.521Z,21.17
2023-01-25T00:39:44.285Z,23.27
2023-01-25T00:41:46.296Z,21.73
2023-01-25T00:43:47.948Z,22.73
2023-01-25T00:45:49.803Z,23.33
2023-01-25T00:47:55.263Z,22.50
2023-01-25T00:49:56.982Z,21.73
2023-01-25T00:51:59.401Z,21.63
2023-01-25T00:54:01.126Z,20.57
2023-01-25T00:56:03.081Z,20.83
2023-01-25T00:58:04.770Z,20.77
2023-01-25T01:00:07.362Z,22.70
2023-01-25T01:02:09.055Z,21.23
2023-01-25T01:04:11.135Z,21.00
2023-01-25T01:06:13.045Z,19.17
2023-01-25T01:08:15.418Z,19.90
2023-01-25T01:10:17.258Z,22.83
2023-01-25T01:12:19.575Z,22.40
2023-01-25T01:15:17.706Z,34.27
2023-01-25T01:17:25.591Z,23.70
2023-01-25T01:19:27.325Z,22.77
2023-01-25T01:21:28.993Z,20.90
2023-01-25T01:23:32.286Z,21.83
2023-01-25T01:25:33.949Z,22.47
2023-01-25T01:27:35.655Z,21.33
2023-01-25T01:29:37.355Z,22.00
2023-01-25T01:31:39.201Z,24.40
2023-01-25T01:33:41.246Z,26.57
2023-01-25T01:35:43.262Z,22.23
2023-01-25T01:37:45.038Z,19.57
2023-01-25T01:39:46.849Z,18.83
2023-01-25T01:41:48.624Z,19.33
2023-01-25T01:43:50.442Z,20.50
2023-01-25T01:45:55.560Z,18.33
2023-01-25T01:47:57.312Z,20.57
2023-01-25T01:50:06.451Z,20.80
2023-01-25T01:52:32.458Z,19.67
2023-01-25T01:54:40.971Z,17.23
2023-01-25T01:56:51.572Z,19.60
2023-01-25T01:58:55.629Z,19.33
2023-01-25T02:00:57.809Z,21.70
2023-01-25T02:03:00.564Z,20.97
2023-01-25T02:05:07.141Z,19.90
2023-01-25T02:07:16.105Z,19.13
2023-01-25T02:09:21.708Z,20.20
2023-01-25T02:11:24.878Z,23.60
2023-01-25T02:13:28.283Z,22.50
2023-01-25T02:15:38.153Z,20.37
2023-01-25T02:17:41.650Z,19.97
2023-01-25T02:20:06.657Z,23.33
2023-01-25T02:22:13.468Z,19.30
2023-01-25T02:24:29.661Z,20.60
2023-01-25T02:26:31.408Z,23.00
2023-01-25T02:28:52.468Z,23.23
2023-01-25T02:30:54.214Z,21.30
2023-01-25T02:32:55.957Z,22.37
2023-01-25T02:34:57.645Z,17.40
2023-01-25T02:36:59.772Z,19.20
2023-01-25T02:39:08.919Z,18.70
2023-01-25T02:41:19.017Z,19.37
2023-01-25T02:43:21.227Z,18.10
2023-01-25T02:45:27.921Z,16.57
2023-01-25T02:47:29.751Z,16.10
2023-01-25T02:49:34.374Z,17.13
2023-01-25T02:51:40.793Z,17.00
2023-01-25T02:53:42.452Z,16.63
2023-01-25T02:55:44.118Z,18.00
2023-01-25T02:57:45.882Z,19.90
2023-01-25T02:59:47.537Z,18.00
2023-01-25T03:01:50.133Z,15.87
2023-01-25T03:03:51.959Z,16.33
2023-01-25T03:05:53.855Z,15.47
2023-01-25T03:07:55.593Z,16.23
2023-01-25T03:09:57.375Z,15.87
2023-01-25T03:11:59.210Z,16.20
2023-01-25T03:14:01.201Z,17.83
2023-01-25T03:16:06.224Z,18.07
2023-01-25T03:18:07.980Z,20.20
2023-01-25T03:20:10.383Z,18.03
2023-01-25T03:22:12.221Z,20.90
2023-01-25T03:24:14.246Z,20.70
2023-01-25T03:26:19.716Z,16.10
2023-01-25T03:28:21.422Z,16.60
2023-01-25T03:30:23.177Z,15.70
2023-01-25T03:32:24.976Z,14.30
2023-01-25T03:34:27.025Z,14.20
2023-01-25T03:36:28.944Z,15.50
2023-01-25T03:38:31.637Z,17.53
2023-01-25T03:40:33.302Z,16.67
2023-01-25T03:42:35.033Z,17.17
2023-01-25T03:44:36.812Z,16.93
2023-01-25T03:46:42.278Z,15.90
2023-01-25T03:48:44.022Z,17.90
2023-01-25T03:50:50.549Z,19.73
2023-01-25T03:52:58.876Z,19.80
2023-01-25T03:55:00.697Z,20.20
2023-01-25T03:57:02.550Z,20.40
2023-01-25T03:59:05.045Z,19.13
2023-01-25T04:01:07.905Z,17.00
2023-01-25T04:03:09.694Z,16.43
2023-01-25T04:05:11.544Z,18.23
2023-01-25T04:07:13.364Z,18.87
2023-01-25T04:09:15.111Z,18.23
2023-01-25T04:11:16.792Z,16.90
2023-01-25T04:13:18.699Z,16.53
2023-01-25T04:15:20.391Z,17.27
2023-01-25T04:17:22.486Z,18.77
2023-01-25T04:19:24.162Z,17.27
2023-01-25T04:21:25.916Z,16.20
2023-01-25T04:23:27.656Z,18.03
2023-01-25T04:25:29.687Z,21.47
2023-01-25T04:27:31.353Z,15.63
2023-01-25T04:29:41.156Z,15.83
2023-01-25T04:31:43.572Z,18.30
2023-01-25T04:33:45.298Z,22.20
2023-01-25T04:35:47.067Z,18.20
2023-01-25T04:37:56.549Z,18.40
2023-01-25T04:39:58.343Z,16.80
2023-01-25T04:42:00.010Z,17.13
2023-01-25T04:44:01.651Z,17.57
2023-01-25T04:46:03.632Z,19.27
2023-01-25T04:48:09.846Z,15.03
2023-01-25T04:50:11.987Z,15.60
2023-01-25T04:52:13.647Z,16.60
2023-01-25T04:54:15.693Z,16.37
2023-01-25T04:56:17.547Z,18.33
2023-01-25T04:58:19.952Z,20.00
2023-01-25T05:00:22.104Z,17.13
2023-01-25T05:02:23.953Z,20.50
2023-01-25T05:04:25.713Z,21.73
2023-01-25T05:06:27.597Z,17.67
2023-01-25T05:08:29.421Z,16.23
2023-01-25T05:10:31.472Z,15.77
2023-01-25T05:12:33.443Z,15.67
2023-01-25T05:14:35.928Z,14.20
2023-01-25T05:16:37.789Z,16.93
2023-01-25T05:18:48.395Z,14.40
2023-01-25T05:20:56.696Z,15.87
2023-01-25T05:22:58.561Z,16.07
2023-01-25T05:25:01.982Z,15.50
2023-01-25T05:27:04.145Z,13.87
2023-01-25T05:29:05.872Z,15.23
2023-01-25T05:31:07.680Z,14.67
2023-01-25T05:33:09.407Z,13.33
2023-01-25T05:35:11.442Z,13.93
2023-01-25T05:37:16.490Z,13.70
2023-01-25T05:39:18.262Z,13.80
2023-01-25T05:41:19.959Z,14.00
2023-01-25T05:43:23.669Z,13.50
2023-01-25T05:45:25.988Z,14.90
2023-01-25T05:47:27.871Z,13.23
2023-01-25T05:49:29.550Z,14.63
2023-01-25T05:51:31.239Z,14.00
2023-01-25T05:53:32.936Z,15.07
2023-01-25T05:55:36.841Z,13.93
2023-01-25T05:57:38.883Z,13.03
2023-01-25T05:59:40.568Z,13.13
2023-01-25T06:01:42.587Z,12.70
2023-01-25T06:03:45.638Z,11.70
2023-01-25T06:05:47.479Z,10.90
2023-01-25T06:07:49.203Z,11.30
2023-01-25T06:09:50.857Z,11.07
2023-01-25T06:11:52.563Z,12.33
2023-01-25T06:13:54.296Z,12.20
2023-01-25T06:15:56.904Z,11.77
2023-01-25T06:17:58.632Z,16.97
2023-01-25T06:20:00.368Z,14.70
2023-01-25T06:22:02.049Z,12.20
2023-01-25T06:24:04.864Z,10.10
2023-01-25T06:26:12.899Z,10.77
2023-01-25T06:28:14.789Z,10.83
2023-01-25T06:30:16.884Z,12.13
2023-01-25T06:32:18.773Z,14.30
2023-01-25T06:34:20.675Z,12.23
2023-01-25T06:36:23.224Z,11.60
2023-01-25T06:38:24.969Z,11.23
2023-01-25T06:40:28.303Z,13.13
2023-01-25T06:42:30.184Z,12.87
2023-01-25T06:44:31.935Z,14.70
2023-01-25T06:46:33.881Z,15.40
2023-01-25T06:48:35.949Z,12.77
2023-01-25T06:50:37.577Z,13.53
2023-01-25T06:52:39.357Z,16.77
2023-01-25T06:54:41.275Z,13.90
2023-01-25T06:56:42.991Z,13.63
2023-01-25T06:58:45.677Z,14.63
2023-01-25T07:00:47.391Z,16.30
2023-01-25T07:02:49.062Z,17.07
2023-01-25T07:04:50.887Z,13.40
2023-01-25T07:06:52.555Z,16.80
2023-01-25T07:08:54.281Z,17.10
2023-01-25T07:10:58.399Z,12.27
2023-01-25T07:13:00.145Z,14.67
2023-01-25T07:15:01.964Z,14.07
2023-01-25T07:17:04.086Z,15.97
2023-01-25T07:19:07.212Z,12.70
2023-01-25T07:21:21.170Z,12.53
2023-01-25T07:23:23.002Z,12.70
2023-01-25T07:25:24.676Z,16.97
2023-01-25T07:27:26.299Z,17.20
2023-01-25T07:29:28.044Z,22.00
2023-01-25T07:31:30.025Z,20.57
2023-01-25T07:33:32.937Z,19.87
2023-01-25T07:35:34.851Z,13.90
2023-01-25T07:37:36.984Z,13.40
2023-01-25T07:39:40.813Z,13.33
2023-01-25T07:41:42.514Z,15.00
2023-01-25T07:43:44.370Z,13.17
2023-01-25T07:45:48.782Z,13.73
2023-01-25T07:47:50.427Z,13.00
2023-01-25T07:49:52.343Z,13.17
2023-01-25T07:51:54.054Z,12.60
2023-01-25T07:54:01.303Z,12.47
2023-01-25T07:56:03.100Z,12.83
2023-01-25T07:58:05.037Z,12.30
2023-01-25T08:00:07.503Z,12.77
2023-01-25T08:02:11.917Z,12.40
2023-01-25T08:04:13.805Z,10.53
2023-01-25T08:06:15.696Z,12.93
2023-01-25T08:08:17.443Z,19.87
2023-01-25T08:10:19.233Z,20.97
2023-01-25T08:12:20.984Z,15.00
2023-01-25T08:14:22.753Z,15.90
2023-01-25T08:16:26.852Z,18.93
2023-01-25T08:18:28.507Z,14.30
2023-01-25T08:20:30.175Z,12.20
2023-01-25T08:22:31.876Z,16.50
2023-01-25T08:24:33.767Z,11.03
2023-01-25T08:26:36.311Z,14.33
2023-01-25T08:28:38.212Z,13.33
2023-01-25T08:30:48.686Z,14.70
2023-01-25T08:32:57.471Z,15.00
2023-01-25T08:34:59.169Z,18.30
2023-01-25T08:37:01.287Z,15.20
2023-01-25T08:39:07.858Z,16.50
2023-01-25T08:41:12.537Z,18.03
2023-01-25T08:43:14.277Z,11.30
2023-01-25T08:45:16.234Z,15.30
2023-01-25T08:47:18.031Z,12.30
2023-01-25T08:49:19.662Z,16.20
2023-01-25T08:51:22.154Z,13.27
2023-01-25T08:53:23.917Z,15.87
2023-01-25T08:55:25.660Z,11.70
2023-01-25T08:57:27.317Z,13.80
2023-01-25T08:59:29.248Z,14.10
2023-01-25T09:01:30.942Z,12.10
2023-01-25T09:03:36.695Z,10.83
2023-01-25T09:05:39.546Z,18.30
2023-01-25T09:07:41.402Z,15.00
2023-01-25T09:09:43.293Z,12.10
2023-01-25T09:11:45.174Z,19.30
2023-01-25T09:13:48.792Z,10.77
2023-01-25T09:15:50.410Z,14.43
2023-01-25T09:17:54.034Z,15.40
2023-01-25T09:19:55.770Z,20.33
2023-01-25T09:21:57.449Z,15.20
2023-01-25T09:24:07.915Z,17.87
2023-01-25T09:26:10.840Z,17.90
2023-01-25T09:28:12.490Z,17.20
2023-01-25T09:30:18.792Z,13.87
2023-01-25T09:32:20.970Z,16.23
2023-01-25T09:34:22.807Z,12.80
2023-01-25T09:36:24.659Z,12.50
2023-01-25T09:38:26.776Z,17.37
2023-01-25T09:40:38.651Z,17.20
2023-01-25T09:42:49.176Z,13.50
2023-01-25T09:45:06.621Z,16.50
2023-01-25T09:47:38.300Z,15.03
2023-01-25T09:49:55.104Z,15.70
2023-01-25T09:52:34.682Z,15.67
2023-01-25T09:54:47.063Z,14.67
2023-01-25T09:56:51.882Z,13.83
2023-01-25T09:59:03.855Z,17.40
2023-01-25T10:01:21.631Z,14.10
2023-01-25T10:03:40.512Z,15.20
2023-01-25T10:05:49.152Z,12.87
2023-01-25T10:08:03.236Z,13.90
2023-01-25T10:10:18.981Z,12.67
2023-01-25T10:12:23.916Z,14.03
2023-01-25T10:14:26.085Z,14.07
2023-01-25T10:16:43.924Z,14.63
2023-01-25T10:18:45.668Z,15.50
2023-01-25T10:20:56.615Z,13.97
2023-01-25T10:23:17.120Z,14.43
2023-01-25T10:25:29.501Z,14.70
2023-01-25T10:27:59.100Z,15.47
2023-01-25T10:30:20.935Z,14.60
2023-01-25T10:32:32.533Z,15.50
2023-01-25T10:34:55.410Z,16.10
2023-01-25T10:37:04.756Z,17.10
2023-01-25T10:39:07.872Z,15.40
2023-01-25T10:41:21.636Z,14.40
2023-01-25T10:43:23.733Z,15.20
2023-01-25T10:45:25.785Z,17.63
2023-01-25T10:47:35.151Z,17.20
2023-01-25T10:49:41.634Z,16.27
2023-01-25T10:51:43.331Z,14.90
2023-01-25T10:53:58.395Z,14.93
2023-01-25T10:56:00.479Z,14.60
2023-01-25T10:58:02.170Z,15.33
2023-01-25T11:00:12.823Z,14.90
2023-01-25T11:02:41.660Z,15.57
2023-01-25T11:04:47.267Z,16.03
2023-01-25T11:06:51.418Z,16.80
2023-01-25T11:08:53.198Z,15.80
2023-01-25T11:10:54.970Z,15.47
2023-01-25T11:13:15.217Z,15.60
2023-01-25T11:15:24.693Z,16.00
2023-01-25T11:17:31.615Z,14.97
2023-01-25T11:19:39.580Z,20.20
2023-01-25T11:21:55.151Z,17.23
2023-01-25T11:24:11.638Z,16.63
2023-01-25T11:26:17.837Z,16.00
2023-01-25T11:28:24.600Z,15.77
2023-01-25T11:30:26.324Z,16.00
2023-01-25T11:32:28.082Z,15.90
2023-01-25T11:34:30.503Z,16.80
2023-01-25T11:36:35.074Z,16.83
2023-01-25T11:38:39.299Z,16.53
2023-01-25T11:40:46.879Z,15.50
2023-01-25T11:42:58.432Z,16.90
2023-01-25T11:45:27.505Z,15.73
2023-01-25T11:47:44.901Z,16.33
2023-01-25T11:50:13.831Z,16.70
2023-01-25T11:52:46.443Z,15.73
2023-01-25T11:55:19.101Z,18.07
2023-01-25T11:57:55.779Z,21.20
2023-01-25T12:00:28.971Z,24.70
2023-01-25T12:02:39.681Z,23.73
2023-01-25T12:05:06.328Z,16.90
2023-01-25T12:07:32.076Z,15.80
2023-01-25T12:09:42.300Z,13.57
2023-01-25T12:12:05.624Z,15.40
2023-01-25T12:14:36.451Z,25.60
2023-01-25T12:16:52.979Z,24.60
2023-01-25T12:19:12.502Z,20.33
2023-01-25T12:21:34.082Z,19.83
2023-01-25T12:23:56.202Z,18.83
2023-01-25T12:26:12.888Z,20.57
2023-01-25T12:28:27.316Z,21.43
2023-01-25T12:30:50.821Z,16.97
2023-01-25T12:33:18.273Z,17.00
2023-01-25T12:35:34.351Z,15.97
2023-01-25T12:37:40.750Z,18.17
2023-01-25T12:40:01.614Z,16.00
2023-01-25T12:42:13.309Z,16.60
2023-01-25T12:44:18.350Z,19.90
2023-01-25T12:46:35.230Z,19.30
2023-01-25T12:48:41.857Z,20.40
2023-01-25T12:51:01.821Z,18.67
2023-01-25T12:53:22.260Z,18.20
2023-01-25T12:55:24.703Z,17.20
2023-01-25T12:57:29.902Z,20.43
2023-01-25T12:59:56.586Z,19.47
2023-01-25T13:02:19.898Z,20.20
2023-01-25T13:04:55.803Z,18.83
2023-01-25T13:07:03.205Z,19.53
2023-01-25T13:09:17.895Z,16.20
2023-01-25T13:11:31.511Z,16.23
2023-01-25T13:13:34.683Z,15.90
2023-01-25T13:15:43.688Z,15.07
2023-01-25T13:17:45.689Z,15.27
2023-01-25T13:19:47.830Z,17.03
2023-01-25T13:21:52.414Z,17.00
2023-01-25T13:24:20.680Z,15.93
2023-01-25T13:26:22.420Z,19.50
2023-01-25T13:28:47.569Z,24.20
2023-01-25T13:30:53.566Z,27.03
2023-01-25T13:33:01.441Z,27.37
2023-01-25T13:35:05.417Z,31.60
2023-01-25T13:37:25.842Z,21.27
2023-01-25T13:39:27.539Z,25.17
2023-01-25T13:41:29.266Z,29.07
2023-01-25T13:43:31.067Z,32.23
2023-01-25T13:45:38.169Z,19.47
2023-01-25T13:47:42.426Z,19.47
2023-01-25T13:49:56.553Z,18.57
2023-01-25T13:52:00.081Z,18.10
2023-01-25T13:54:02.090Z,18.73
2023-01-25T13:56:03.896Z,19.67
2023-01-25T13:58:15.259Z,19.10
2023-01-25T14:00:18.327Z,18.77
2023-01-25T14:02:24.777Z,18.23
2023-01-25T14:04:28.455Z,19.50
2023-01-25T14:06:34.087Z,17.80
2023-01-25T14:08:36.930Z,18.90
2023-01-25T14:10:38.623Z,19.37
2023-01-25T14:12:42.949Z,19.07
2023-01-25T14:14:44.930Z,20.33
2023-01-25T14:16:47.221Z,20.23
2023-01-25T14:18:49.846Z,20.40
2023-01-25T14:20:53.573Z,24.03
2023-01-25T14:22:55.468Z,20.73
2023-01-25T14:25:12.100Z,23.67
2023-01-25T14:27:14.965Z,26.10
2023-01-25T14:29:35.160Z,19.93
2023-01-25T14:31:38.238Z,21.60
2023-01-25T14:33:44.601Z,21.93
2023-01-25T14:35:59.980Z,20.87
2023-01-25T14:38:33.763Z,25.87
2023-01-25T14:40:35.769Z,19.67
2023-01-25T14:42:37.443Z,23.70
2023-01-25T14:44:39.552Z,20.50
2023-01-25T14:46:41.955Z,22.70
2023-01-25T14:48:45.152Z,21.80
2023-01-25T14:50:47.280Z,20.33
2023-01-25T14:52:49.841Z,19.30
2023-01-25T14:54:55.067Z,20.53
2023-01-25T14:57:00.713Z,19.20
2023-01-25T14:59:04.520Z,21.87
2023-01-25T15:01:06.389Z,22.40
2023-01-25T15:03:16.173Z,26.90
2023-01-25T15:05:33.160Z,22.97
2023-01-25T15:07:58.836Z,25.03
2023-01-25T15:10:20.561Z,20.73
2023-01-25T15:12:33.262Z,22.93
2023-01-25T15:14:48.298Z,29.47
2023-01-25T15:16:50.072Z,22.03
2023-01-25T15:18:56.435Z,29.00
2023-01-25T15:20:58.269Z,26.93
2023-01-25T15:23:22.144Z,25.47
2023-01-25T15:25:24.713Z,25.57
2023-01-25T15:27:26.451Z,21.27
2023-01-25T15:29:28.403Z,22.73
2023-01-25T15:31:33.778Z,20.80
2023-01-25T15:33:35.747Z,19.67
2023-01-25T15:35:37.441Z,19.20
2023-01-25T15:37:39.385Z,20.03
2023-01-25T15:39:41.134Z,20.97
2023-01-25T15:41:43.022Z,20.30
2023-01-25T15:43:45.755Z,22.40
2023-01-25T15:45:50.500Z,22.70
2023-01-25T15:47:52.134Z,26.40
2023-01-25T15:49:53.893Z,23.57
2023-01-25T15:51:56.213Z,19.40
2023-01-25T15:53:58.171Z,21.53
2023-01-25T15:56:15.533Z,24.20
2023-01-25T15:58:29.096Z,20.73
2023-01-25T16:00:30.844Z,21.27
2023-01-25T16:02:32.699Z,19.47
2023-01-25T16:04:34.407Z,19.00
2023-01-25T16:06:50.125Z,19.27
2023-01-25T16:08:52.086Z,18.43
2023-01-25T16:10:54.459Z,20.67
2023-01-25T16:12:56.354Z,21.73
2023-01-25T16:14:58.957Z,19.10
2023-01-25T16:17:04.182Z,17.90
2023-01-25T16:19:06.151Z,18.03
2023-01-25T16:21:12.485Z,19.00
2023-01-25T16:23:14.568Z,15.17
2023-01-25T16:25:16.487Z,16.57
2023-01-25T16:27:27.023Z,16.50
2023-01-25T16:29:28.721Z,14.03
2023-01-25T16:31:33.216Z,14.70
2023-01-25T16:33:35.589Z,15.33
2023-01-25T16:35:37.509Z,16.07
2023-01-25T16:37:39.319Z,16.67
2023-01-25T16:39:41.172Z,14.67
2023-01-25T16:41:42.876Z,15.20
2023-01-25T16:43:46.024Z,16.23
2023-01-25T16:45:49.179Z,21.43
2023-01-25T16:47:51.710Z,20.67
2023-01-25T16:49:53.464Z,19.60
2023-01-25T16:51:55.343Z,16.57
2023-01-25T16:53:58.435Z,15.30
2023-01-25T16:56:00.283Z,15.60
2023-01-25T16:58:02.214Z,15.80
2023-01-25T17:00:10.888Z,16.10
2023-01-25T17:02:13.025Z,14.70
2023-01-25T17:04:15.212Z,14.33
2023-01-25T17:06:31.237Z,13.70
2023-01-25T17:08:33.848Z,14.07
2023-01-25T17:10:37.738Z,13.03
2023-01-25T17:12:39.660Z,13.47
2023-01-25T17:14:41.935Z,12.90
2023-01-25T17:16:45.119Z,16.00
2023-01-25T17:18:47.859Z,16.33
2023-01-25T17:21:04.730Z,13.80
2023-01-25T17:23:06.792Z,14.40
2023-01-25T17:25:08.669Z,13.87
2023-01-25T17:27:10.660Z,11.73
2023-01-25T17:29:13.893Z,12.17
2023-01-25T17:31:18.566Z,12.50
2023-01-25T17:33:20.343Z,12.47
2023-01-25T17:35:22.269Z,10.37
2023-01-25T17:37:24.221Z,10.73
2023-01-25T17:39:25.887Z,11.63
2023-01-25T17:41:27.903Z,10.87
2023-01-25T17:43:29.648Z,11.00
2023-01-25T17:45:38.323Z,12.10
2023-01-25T17:47:40.198Z,11.87
2023-01-25T17:49:42.055Z,11.67
2023-01-25T17:51:44.204Z,12.50
2023-01-25T17:53:46.248Z,13.00
2023-01-25T17:55:49.065Z,11.70
2023-01-25T17:57:51.473Z,11.27
2023-01-25T17:59:53.147Z,11.13
2023-01-25T18:01:54.886Z,9.70
2023-01-25T18:03:57.871Z,11.27
2023-01-25T18:06:00.629Z,11.87
2023-01-25T18:08:02.649Z,12.43
2023-01-25T18:10:05.274Z,11.90
2023-01-25T18:12:07.409Z,11.87
2023-01-25T18:14:15.285Z,11.17
2023-01-25T18:16:18.737Z,12.37
2023-01-25T18:18:20.699Z,12.80
2023-01-25T18:20:22.598Z,11.30
2023-01-25T18:22:24.253Z,13.60
2023-01-25T18:24:32.549Z,12.97
2023-01-25T18:26:37.106Z,12.27
2023-01-25T18:28:38.950Z,12.80
2023-01-25T18:30:51.804Z,13.23
2023-01-25T18:32:53.702Z,12.80
2023-01-25T18:34:55.405Z,12.47
2023-01-25T18:36:59.411Z,14.40
2023-01-25T18:39:01.448Z,15.50
2023-01-25T18:41:04.698Z,14.13
2023-01-25T18:43:06.419Z,14.87
2023-01-25T18:45:09.438Z,14.47
2023-01-25T18:47:13.913Z,13.97
2023-01-25T18:49:15.677Z,16.90
2023-01-25T18:51:17.903Z,18.23
2023-01-25T18:53:20.049Z,14.70
2023-01-25T18:55:21.925Z,16.17
2023-01-25T18:57:24.033Z,17.00
2023-01-25T18:59:26.284Z,15.63
2023-01-25T19:01:28.124Z,16.97
2023-01-25T19:03:30.536Z,15.60
2023-01-25T19:05:32.204Z,16.23
2023-01-25T19:07:34.058Z,16.07
2023-01-25T19:09:36.585Z,15.73
2023-01-25T19:11:38.176Z,17.80
2023-01-25T19:13:41.292Z,22.17
2023-01-25T19:15:43.371Z,16.23
2023-01-25T19:17:45.096Z,20.13
2023-01-25T19:19:47.065Z,16.87
2023-01-25T19:21:48.841Z,17.53
2023-01-25T19:23:51.353Z,16.20
2023-01-25T19:25:54.770Z,18.20
2023-01-25T19:27:56.455Z,19.00
2023-01-25T19:29:58.178Z,16.53
2023-01-25T19:31:59.943Z,18.30
2023-01-25T19:34:04.366Z,17.70
2023-01-25T19:36:08.192Z,15.43
2023-01-25T19:38:10.209Z,17.53
2023-01-25T19:40:12.929Z,16.33
2023-01-25T19:42:18.398Z,16.70
2023-01-25T19:44:20.887Z,16.33
2023-01-25T19:46:25.012Z,16.37
2023-01-25T19:48:32.175Z,15.90
2023-01-25T19:50:33.958Z,15.30
2023-01-25T19:52:36.432Z,16.03
2023-01-25T19:54:38.171Z,17.70
2023-01-25T19:56:41.647Z,16.37
2023-01-25T19:58:45.380Z,15.30
2023-01-25T20:00:47.617Z,17.03
2023-01-25T20:02:49.346Z,14.40
2023-01-25T20:04:52.001Z,13.23
2023-01-25T20:06:53.942Z,13.30
2023-01-25T20:08:55.842Z,19.90
2023-01-25T20:10:59.549Z,17.00
2023-01-25T20:13:01.532Z,14.37
2023-01-25T20:15:03.464Z,14.00
2023-01-25T20:17:06.829Z,14.50
2023-01-25T20:19:11.929Z,18.50
2023-01-25T20:21:22.005Z,16.83
2023-01-25T20:23:24.467Z,16.30
2023-01-25T20:25:26.210Z,17.37
2023-01-25T20:27:27.917Z,15.90
2023-01-25T20:29:29.699Z,15.10
2023-01-25T20:31:34.089Z,15.20
2023-01-25T20:33:35.924Z,14.67
2023-01-25T20:35:37.979Z,14.90
2023-01-25T20:37:39.798Z,15.00
2023-01-25T20:39:41.471Z,15.80
2023-01-25T20:41:43.428Z,14.63
2023-01-25T20:43:52.543Z,17.27
2023-01-25T20:45:54.288Z,14.90
2023-01-25T20:47:56.106Z,16.77
2023-01-25T20:49:57.806Z,15.57
2023-01-25T20:51:59.523Z,15.30
2023-01-25T20:54:01.327Z,15.97
2023-01-25T20:56:03.664Z,14.87
2023-01-25T20:58:05.630Z,15.77
2023-01-25T21:00:09.578Z,15.97
2023-01-25T21:02:11.389Z,16.10
2023-01-25T21:04:13.170Z,19.00
2023-01-25T21:06:15.353Z,16.00
2023-01-25T21:08:18.373Z,17.47
2023-01-25T21:10:20.071Z,16.77
2023-01-25T21:12:22.087Z,16.20
2023-01-25T21:14:23.963Z,16.57
2023-01-25T21:16:25.749Z,17.00
2023-01-25T21:18:36.000Z,16.00
2023-01-25T21:20:38.152Z,15.77
2023-01-25T21:22:40.007Z,17.37
2023-01-25T21:24:41.716Z,16.57
2023-01-25T21:26:43.550Z,17.87
2023-01-25T21:28:45.561Z,17.67
2023-01-25T21:30:47.276Z,15.67
2023-01-25T21:32:48.961Z,17.03
2023-01-25T21:34:50.635Z,17.00
2023-01-25T21:36:52.708Z,18.67
2023-01-25T21:38:55.174Z,16.90
2023-01-25T21:41:02.004Z,17.43
2023-01-25T21:43:03.981Z,16.50
2023-01-25T21:45:25.020Z,16.80
2023-01-25T21:47:30.897Z,15.43
2023-01-25T21:49:51.705Z,15.40
2023-01-25T21:51:57.684Z,15.33
2023-01-25T21:53:59.376Z,15.43
2023-01-25T21:56:01.073Z,15.60
2023-01-25T21:58:02.818Z,15.87
2023-01-25T22:00:05.511Z,17.77
2023-01-25T22:02:12.036Z,17.40
2023-01-25T22:04:15.230Z,16.27
2023-01-25T22:06:18.127Z,15.67
2023-01-25T22:08:20.219Z,14.80
2023-01-25T22:10:22.220Z,14.80
2023-01-25T22:12:25.625Z,14.23
2023-01-25T22:14:27.667Z,15.10
2023-01-25T22:16:30.169Z,16.93
2023-01-25T22:18:35.628Z,15.77
2023-01-25T22:20:37.582Z,16.50
2023-01-25T22:22:39.275Z,17.03
2023-01-25T22:24:40.955Z,15.27
2023-01-25T22:26:45.861Z,16.33
2023-01-25T22:28:47.616Z,16.07
2023-01-25T22:30:49.449Z,15.47
2023-01-25T22:32:51.125Z,18.03
2023-01-25T22:34:52.799Z,16.10
2023-01-25T22:36:54.710Z,15.60
2023-01-25T22:38:57.252Z,17.90
2023-01-25T22:41:29.896Z,15.73
2023-01-25T22:43:32.103Z,16.80
2023-01-25T22:45:34.095Z,17.10
2023-01-25T22:47:35.896Z,17.20
2023-01-25T22:49:37.578Z,18.03
2023-01-25T22:51:39.285Z,17.93
2023-01-25T22:53:41.414Z,18.40
2023-01-25T22:55:43.295Z,19.10
2023-01-25T22:57:45.113Z,17.87
2023-01-25T22:59:47.219Z,19.57
2023-01-25T23:01:49.132Z,16.60
2023-01-25T23:03:51.966Z,16.10
2023-01-25T23:06:01.542Z,15.80
2023-01-25T23:08:03.513Z,16.90
2023-01-25T23:10:05.841Z,14.30
2023-01-25T23:12:07.624Z,16.40
2023-01-25T23:14:30.436Z,16.93
2023-01-25T23:16:33.302Z,18.00
2023-01-25T23:18:51.336Z,16.83
2023-01-25T23:20:53.085Z,17.77
2023-01-25T23:22:54.782Z,18.00
2023-01-25T23:24:56.773Z,18.40
2023-01-25T23:26:58.523Z,17.43
2023-01-25T23:29:00.277Z,18.33
2023-01-25T23:31:17.946Z,17.70
2023-01-25T23:33:19.814Z,19.67
2023-01-25T23:35:22.052Z,19.43
2023-01-25T23:37:24.025Z,21.73
2023-01-25T23:39:26.809Z,22.23
2023-01-25T23:41:29.579Z,22.40
2023-01-25T23:43:31.757Z,21.10
2023-01-25T23:45:34.125Z,20.40
2023-01-25T23:47:35.999Z,20.40
2023-01-25T23:49:37.944Z,21.80
2023-01-25T23:51:40.042Z,22.33
2023-01-25T23:53:42.198Z,24.30
2023-01-25T23:55:58.810Z,35.07
2023-01-25T23:58:00.668Z,30.80
